Long Creek, North Carolina
Current Conditions -  °F | °C
As of 8:57 AM on Friday 31 Oct 2014 (Local Time) from KJQF Reporting Station
Scattered Clouds Scattered Clouds  
Wind Chill: 40°   Ceiling: Unl
Heat Index: 45°   Visibility: 10mi
Dew Point: 39°   Wind: 8mph
Humidity: 81%   Direction: 360°N
Pressure: 30.01"   Gusts: NA
Location:  35.4129°N, 80.8607°W
Report Text: KJQF 311257Z 36007KT 10SM SCT019 07/04 A3001
Loading
Personal Weather Stations






























Interactive Weather Map
Tropical Storm Tracking
New forecast layout! Learn more

10-Day Weather Forecast

Advertisements
Track Severe Weather on mobile